sensor_id;sensor_type;location;lat;lon;timestamp;P1;durP1;ratioP1;P2;durP2;ratioP2
46308;SDS011;32037;50.820;6.494;2023-12-20T00:01:22;2.13;;;0.98;;
46308;SDS011;32037;50.820;6.494;2023-12-20T00:03:50;1.50;;;0.90;;
46308;SDS011;32037;50.820;6.494;2023-12-20T00:06:20;1.50;;;0.70;;
46308;SDS011;32037;50.820;6.494;2023-12-20T00:08:48;1.75;;;0.95;;
46308;SDS011;32037;50.820;6.494;2023-12-20T00:11:16;1.42;;;0.90;;
46308;SDS011;32037;50.820;6.494;2023-12-20T00:13:44;3.45;;;1.88;;
46308;SDS011;32037;50.820;6.494;2023-12-20T00:16:17;1.70;;;0.98;;
46308;SDS011;32037;50.820;6.494;2023-12-20T00:18:45;1.58;;;1.05;;
46308;SDS011;32037;50.820;6.494;2023-12-20T00:21:14;1.75;;;1.08;;
46308;SDS011;32037;50.820;6.494;2023-12-20T00:23:43;1.90;;;1.17;;
46308;SDS011;32037;50.820;6.494;2023-12-20T00:26:11;1.80;;;1.10;;
46308;SDS011;32037;50.820;6.494;2023-12-20T00:28:39;2.40;;;1.15;;
46308;SDS011;32037;50.820;6.494;2023-12-20T00:31:07;1.63;;;1.00;;
46308;SDS011;32037;50.820;6.494;2023-12-20T00:33:36;2.90;;;1.05;;
46308;SDS011;32037;50.820;6.494;2023-12-20T00:36:06;2.03;;;1.17;;
46308;SDS011;32037;50.820;6.494;2023-12-20T00:38:34;1.92;;;1.27;;
46308;SDS011;32037;50.820;6.494;2023-12-20T00:41:04;2.25;;;1.27;;
46308;SDS011;32037;50.820;6.494;2023-12-20T00:43:32;1.87;;;1.47;;
46308;SDS011;32037;50.820;6.494;2023-12-20T00:46:00;3.00;;;1.77;;
46308;SDS011;32037;50.820;6.494;2023-12-20T00:48:28;1.40;;;0.82;;
46308;SDS011;32037;50.820;6.494;2023-12-20T00:50:57;2.00;;;1.20;;
46308;SDS011;32037;50.820;6.494;2023-12-20T00:53:25;2.55;;;1.98;;
46308;SDS011;32037;50.820;6.494;2023-12-20T00:55:53;2.55;;;1.48;;
46308;SDS011;32037;50.820;6.494;2023-12-20T00:58:23;2.85;;;1.90;;
46308;SDS011;32037;50.820;6.494;2023-12-20T01:00:51;2.33;;;1.45;;
46308;SDS011;32037;50.820;6.494;2023-12-20T01:03:20;3.00;;;1.50;;
46308;SDS011;32037;50.820;6.494;2023-12-20T01:05:48;3.45;;;1.60;;
46308;SDS011;32037;50.820;6.494;2023-12-20T01:08:16;2.38;;;1.50;;
46308;SDS011;32037;50.820;6.494;2023-12-20T01:10:44;3.88;;;1.77;;
46308;SDS011;32037;50.820;6.494;2023-12-20T01:13:13;2.42;;;1.80;;
46308;SDS011;32037;50.820;6.494;2023-12-20T01:15:43;2.55;;;1.23;;
46308;SDS011;32037;50.820;6.494;2023-12-20T01:18:11;2.80;;;1.80;;
46308;SDS011;32037;50.820;6.494;2023-12-20T01:20:39;2.53;;;2.03;;
46308;SDS011;32037;50.820;6.494;2023-12-20T01:23:07;2.35;;;1.42;;
46308;SDS011;32037;50.820;6.494;2023-12-20T01:25:35;3.15;;;2.08;;
46308;SDS011;32037;50.820;6.494;2023-12-20T01:28:03;4.40;;;1.80;;
46308;SDS011;32037;50.820;6.494;2023-12-20T01:30:32;3.28;;;1.95;;
46308;SDS011;32037;50.820;6.494;2023-12-20T01:33:01;2.30;;;2.00;;
46308;SDS011;32037;50.820;6.494;2023-12-20T01:35:29;5.00;;;1.92;;
46308;SDS011;32037;50.820;6.494;2023-12-20T01:37:57;2.15;;;1.30;;
46308;SDS011;32037;50.820;6.494;2023-12-20T01:40:25;2.33;;;1.60;;
46308;SDS011;32037;50.820;6.494;2023-12-20T01:43:00;2.70;;;1.95;;
46308;SDS011;32037;50.820;6.494;2023-12-20T01:45:28;2.50;;;1.65;;
46308;SDS011;32037;50.820;6.494;2023-12-20T01:47:57;2.35;;;1.60;;
46308;SDS011;32037;50.820;6.494;2023-12-20T01:50:27;4.03;;;1.95;;
46308;SDS011;32037;50.820;6.494;2023-12-20T01:52:56;2.90;;;1.70;;
46308;SDS011;32037;50.820;6.494;2023-12-20T01:55:27;2.17;;;1.35;;
46308;SDS011;32037;50.820;6.494;2023-12-20T01:57:58;2.92;;;1.67;;
46308;SDS011;32037;50.820;6.494;2023-12-20T02:00:27;3.25;;;1.83;;
46308;SDS011;32037;50.820;6.494;2023-12-20T02:02:56;2.10;;;1.40;;
46308;SDS011;32037;50.820;6.494;2023-12-20T02:05:30;2.45;;;1.60;;
46308;SDS011;32037;50.820;6.494;2023-12-20T02:07:58;5.00;;;1.50;;
46308;SDS011;32037;50.820;6.494;2023-12-20T02:10:26;3.50;;;1.55;;
46308;SDS011;32037;50.820;6.494;2023-12-20T02:12:55;2.67;;;1.55;;
46308;SDS011;32037;50.820;6.494;2023-12-20T02:15:23;4.18;;;1.67;;
46308;SDS011;32037;50.820;6.494;2023-12-20T02:17:52;3.15;;;1.35;;
46308;SDS011;32037;50.820;6.494;2023-12-20T02:20:20;2.13;;;1.13;;
46308;SDS011;32037;50.820;6.494;2023-12-20T02:22:50;5.00;;;1.40;;
46308;SDS011;32037;50.820;6.494;2023-12-20T02:25:18;3.20;;;1.73;;
46308;SDS011;32037;50.820;6.494;2023-12-20T02:27:46;3.42;;;1.45;;
46308;SDS011;32037;50.820;6.494;2023-12-20T02:30:15;4.13;;;1.33;;
46308;SDS011;32037;50.820;6.494;2023-12-20T02:32:43;4.80;;;1.58;;
46308;SDS011;32037;50.820;6.494;2023-12-20T02:35:11;3.08;;;0.90;;
46308;SDS011;32037;50.820;6.494;2023-12-20T02:37:40;3.83;;;1.52;;
46308;SDS011;32037;50.820;6.494;2023-12-20T02:40:10;3.45;;;1.17;;
46308;SDS011;32037;50.820;6.494;2023-12-20T02:42:38;2.45;;;1.23;;
46308;SDS011;32037;50.820;6.494;2023-12-20T02:45:07;6.20;;;2.10;;
46308;SDS011;32037;50.820;6.494;2023-12-20T02:47:35;2.63;;;1.48;;
46308;SDS011;32037;50.820;6.494;2023-12-20T02:50:03;4.22;;;1.50;;
46308;SDS011;32037;50.820;6.494;2023-12-20T02:52:32;2.38;;;1.45;;
46308;SDS011;32037;50.820;6.494;2023-12-20T02:55:00;2.20;;;1.10;;
46308;SDS011;32037;50.820;6.494;2023-12-20T02:57:30;2.40;;;1.30;;
46308;SDS011;32037;50.820;6.494;2023-12-20T02:59:59;2.88;;;1.10;;
46308;SDS011;32037;50.820;6.494;2023-12-20T03:02:28;2.97;;;1.05;;
46308;SDS011;32037;50.820;6.494;2023-12-20T03:04:56;5.55;;;1.50;;
46308;SDS011;32037;50.820;6.494;2023-12-20T03:07:26;2.80;;;2.28;;
46308;SDS011;32037;50.820;6.494;2023-12-20T03:09:54;2.95;;;1.60;;
46308;SDS011;32037;50.820;6.494;2023-12-20T03:12:43;3.60;;;1.13;;
46308;SDS011;32037;50.820;6.494;2023-12-20T03:15:11;2.60;;;1.15;;
46308;SDS011;32037;50.820;6.494;2023-12-20T03:17:39;2.13;;;1.50;;
46308;SDS011;32037;50.820;6.494;2023-12-20T03:20:08;2.28;;;1.58;;
46308;SDS011;32037;50.820;6.494;2023-12-20T03:22:36;6.65;;;1.63;;
46308;SDS011;32037;50.820;6.494;2023-12-20T03:25:04;2.13;;;1.30;;
46308;SDS011;32037;50.820;6.494;2023-12-20T03:27:33;3.38;;;1.35;;
46308;SDS011;32037;50.820;6.494;2023-12-20T03:30:02;3.22;;;1.67;;
46308;SDS011;32037;50.820;6.494;2023-12-20T03:32:31;2.95;;;1.27;;
46308;SDS011;32037;50.820;6.494;2023-12-20T03:34:59;5.63;;;1.90;;
46308;SDS011;32037;50.820;6.494;2023-12-20T03:37:27;3.30;;;1.30;;
46308;SDS011;32037;50.820;6.494;2023-12-20T03:39:55;4.75;;;1.60;;
46308;SDS011;32037;50.820;6.494;2023-12-20T03:42:24;5.00;;;1.38;;
46308;SDS011;32037;50.820;6.494;2023-12-20T03:44:52;2.78;;;1.40;;
46308;SDS011;32037;50.820;6.494;2023-12-20T03:47:21;4.10;;;1.50;;
46308;SDS011;32037;50.820;6.494;2023-12-20T03:49:49;3.33;;;1.20;;
46308;SDS011;32037;50.820;6.494;2023-12-20T03:52:18;2.90;;;1.45;;
46308;SDS011;32037;50.820;6.494;2023-12-20T03:54:46;3.03;;;1.60;;
46308;SDS011;32037;50.820;6.494;2023-12-20T03:57:14;4.95;;;1.60;;
46308;SDS011;32037;50.820;6.494;2023-12-20T03:59:42;3.63;;;1.67;;
46308;SDS011;32037;50.820;6.494;2023-12-20T04:02:10;2.65;;;1.55;;
46308;SDS011;32037;50.820;6.494;2023-12-20T04:04:39;4.07;;;2.00;;
46308;SDS011;32037;50.820;6.494;2023-12-20T04:07:08;5.45;;;1.52;;
46308;SDS011;32037;50.820;6.494;2023-12-20T04:09:36;7.75;;;3.15;;
46308;SDS011;32037;50.820;6.494;2023-12-20T04:12:05;2.40;;;1.33;;
46308;SDS011;32037;50.820;6.494;2023-12-20T04:14:33;2.13;;;1.33;;
46308;SDS011;32037;50.820;6.494;2023-12-20T04:17:01;2.63;;;1.60;;
46308;SDS011;32037;50.820;6.494;2023-12-20T04:19:30;5.03;;;1.45;;
46308;SDS011;32037;50.820;6.494;2023-12-20T04:21:59;4.90;;;2.13;;
46308;SDS011;32037;50.820;6.494;2023-12-20T04:24:27;4.10;;;1.33;;
46308;SDS011;32037;50.820;6.494;2023-12-20T04:26:56;3.83;;;1.55;;
46308;SDS011;32037;50.820;6.494;2023-12-20T04:29:24;3.42;;;1.65;;
46308;SDS011;32037;50.820;6.494;2023-12-20T04:31:52;2.63;;;1.08;;
46308;SDS011;32037;50.820;6.494;2023-12-20T04:34:20;3.90;;;1.85;;
46308;SDS011;32037;50.820;6.494;2023-12-20T04:36:49;4.57;;;1.52;;
46308;SDS011;32037;50.820;6.494;2023-12-20T04:39:19;4.30;;;1.52;;
46308;SDS011;32037;50.820;6.494;2023-12-20T04:41:47;7.18;;;1.70;;
46308;SDS011;32037;50.820;6.494;2023-12-20T04:44:16;3.58;;;1.90;;
46308;SDS011;32037;50.820;6.494;2023-12-20T04:46:44;2.70;;;1.67;;
46308;SDS011;32037;50.820;6.494;2023-12-20T04:49:12;3.05;;;1.75;;
46308;SDS011;32037;50.820;6.494;2023-12-20T04:51:40;3.90;;;1.80;;
46308;SDS011;32037;50.820;6.494;2023-12-20T04:54:08;6.35;;;1.65;;
46308;SDS011;32037;50.820;6.494;2023-12-20T04:56:38;4.22;;;1.73;;
46308;SDS011;32037;50.820;6.494;2023-12-20T04:59:06;4.80;;;2.20;;
46308;SDS011;32037;50.820;6.494;2023-12-20T05:01:34;3.20;;;1.55;;
46308;SDS011;32037;50.820;6.494;2023-12-20T05:04:03;4.50;;;1.90;;
46308;SDS011;32037;50.820;6.494;2023-12-20T05:06:31;2.92;;;1.70;;
46308;SDS011;32037;50.820;6.494;2023-12-20T05:08:59;5.22;;;1.70;;
46308;SDS011;32037;50.820;6.494;2023-12-20T05:11:27;7.05;;;1.95;;
46308;SDS011;32037;50.820;6.494;2023-12-20T05:13:57;4.07;;;2.35;;
46308;SDS011;32037;50.820;6.494;2023-12-20T05:16:25;4.95;;;1.42;;
46308;SDS011;32037;50.820;6.494;2023-12-20T05:18:53;3.03;;;1.70;;
46308;SDS011;32037;50.820;6.494;2023-12-20T05:21:22;5.90;;;2.22;;
46308;SDS011;32037;50.820;6.494;2023-12-20T05:23:50;2.33;;;2.03;;
46308;SDS011;32037;50.820;6.494;2023-12-20T05:26:18;3.10;;;1.42;;
46308;SDS011;32037;50.820;6.494;2023-12-20T05:28:46;4.45;;;2.00;;
46308;SDS011;32037;50.820;6.494;2023-12-20T05:31:15;3.78;;;2.03;;
46308;SDS011;32037;50.820;6.494;2023-12-20T05:33:44;6.50;;;1.52;;
46308;SDS011;32037;50.820;6.494;2023-12-20T05:36:12;3.35;;;2.13;;
46308;SDS011;32037;50.820;6.494;2023-12-20T05:38:41;3.33;;;1.45;;
46308;SDS011;32037;50.820;6.494;2023-12-20T05:41:10;4.45;;;1.55;;
46308;SDS011;32037;50.820;6.494;2023-12-20T05:43:38;8.38;;;1.70;;
46308;SDS011;32037;50.820;6.494;2023-12-20T05:46:06;2.92;;;1.30;;
46308;SDS011;32037;50.820;6.494;2023-12-20T05:48:35;5.43;;;1.80;;
46308;SDS011;32037;50.820;6.494;2023-12-20T05:51:03;3.33;;;1.85;;
46308;SDS011;32037;50.820;6.494;2023-12-20T05:53:31;5.47;;;2.47;;
46308;SDS011;32037;50.820;6.494;2023-12-20T05:55:59;2.58;;;1.75;;
46308;SDS011;32037;50.820;6.494;2023-12-20T05:58:28;5.82;;;1.80;;
46308;SDS011;32037;50.820;6.494;2023-12-20T06:00:56;3.28;;;1.40;;
46308;SDS011;32037;50.820;6.494;2023-12-20T06:03:24;4.18;;;1.73;;
46308;SDS011;32037;50.820;6.494;2023-12-20T06:05:54;5.00;;;1.67;;
46308;SDS011;32037;50.820;6.494;2023-12-20T06:08:38;4.45;;;2.38;;
46308;SDS011;32037;50.820;6.494;2023-12-20T06:11:06;4.32;;;2.20;;
46308;SDS011;32037;50.820;6.494;2023-12-20T06:13:34;4.00;;;2.22;;
46308;SDS011;32037;50.820;6.494;2023-12-20T06:16:04;2.90;;;1.73;;
46308;SDS011;32037;50.820;6.494;2023-12-20T06:18:33;3.60;;;1.70;;
46308;SDS011;32037;50.820;6.494;2023-12-20T06:21:04;3.28;;;1.45;;
46308;SDS011;32037;50.820;6.494;2023-12-20T06:23:34;3.15;;;1.67;;
46308;SDS011;32037;50.820;6.494;2023-12-20T06:26:02;4.10;;;2.10;;
46308;SDS011;32037;50.820;6.494;2023-12-20T06:28:30;5.85;;;2.08;;
46308;SDS011;32037;50.820;6.494;2023-12-20T06:30:58;6.93;;;1.80;;
46308;SDS011;32037;50.820;6.494;2023-12-20T06:33:27;4.05;;;2.08;;
46308;SDS011;32037;50.820;6.494;2023-12-20T06:35:55;2.40;;;1.40;;
46308;SDS011;32037;50.820;6.494;2023-12-20T06:38:25;4.97;;;2.10;;
46308;SDS011;32037;50.820;6.494;2023-12-20T06:40:53;4.60;;;1.75;;
46308;SDS011;32037;50.820;6.494;2023-12-20T06:43:23;5.25;;;1.70;;
46308;SDS011;32037;50.820;6.494;2023-12-20T06:46:11;5.43;;;1.77;;
46308;SDS011;32037;50.820;6.494;2023-12-20T06:48:40;5.22;;;2.50;;
46308;SDS011;32037;50.820;6.494;2023-12-20T06:51:10;5.25;;;1.75;;
46308;SDS011;32037;50.820;6.494;2023-12-20T06:53:41;7.43;;;2.17;;
46308;SDS011;32037;50.820;6.494;2023-12-20T06:56:10;4.93;;;2.08;;
46308;SDS011;32037;50.820;6.494;2023-12-20T06:58:43;7.28;;;2.50;;
46308;SDS011;32037;50.820;6.494;2023-12-20T07:01:11;5.13;;;2.10;;
46308;SDS011;32037;50.820;6.494;2023-12-20T07:03:39;5.07;;;2.50;;
46308;SDS011;32037;50.820;6.494;2023-12-20T07:06:08;9.48;;;2.40;;
46308;SDS011;32037;50.820;6.494;2023-12-20T07:08:36;6.70;;;2.40;;
46308;SDS011;32037;50.820;6.494;2023-12-20T07:11:05;4.10;;;2.10;;
46308;SDS011;32037;50.820;6.494;2023-12-20T07:13:33;3.67;;;2.22;;
46308;SDS011;32037;50.820;6.494;2023-12-20T07:16:02;4.88;;;2.03;;
46308;SDS011;32037;50.820;6.494;2023-12-20T07:18:31;3.30;;;1.83;;
46308;SDS011;32037;50.820;6.494;2023-12-20T07:20:59;3.00;;;1.85;;
46308;SDS011;32037;50.820;6.494;2023-12-20T07:23:27;7.18;;;1.90;;
46308;SDS011;32037;50.820;6.494;2023-12-20T07:25:55;3.25;;;1.60;;
46308;SDS011;32037;50.820;6.494;2023-12-20T07:28:25;3.42;;;1.83;;
46308;SDS011;32037;50.820;6.494;2023-12-20T07:30:53;4.67;;;1.70;;
46308;SDS011;32037;50.820;6.494;2023-12-20T07:33:21;3.08;;;1.70;;
46308;SDS011;32037;50.820;6.494;2023-12-20T07:35:49;4.32;;;1.92;;
46308;SDS011;32037;50.820;6.494;2023-12-20T07:38:19;5.00;;;2.40;;
46308;SDS011;32037;50.820;6.494;2023-12-20T07:40:47;4.30;;;1.73;;
46308;SDS011;32037;50.820;6.494;2023-12-20T07:43:15;7.82;;;2.60;;
46308;SDS011;32037;50.820;6.494;2023-12-20T07:45:44;3.55;;;1.70;;
46308;SDS011;32037;50.820;6.494;2023-12-20T07:48:12;6.47;;;2.97;;
46308;SDS011;32037;50.820;6.494;2023-12-20T07:50:41;3.03;;;2.45;;
46308;SDS011;32037;50.820;6.494;2023-12-20T07:53:09;5.60;;;2.40;;
46308;SDS011;32037;50.820;6.494;2023-12-20T07:55:37;4.05;;;1.90;;
46308;SDS011;32037;50.820;6.494;2023-12-20T07:58:06;3.58;;;2.17;;
46308;SDS011;32037;50.820;6.494;2023-12-20T08:00:34;5.30;;;2.50;;
46308;SDS011;32037;50.820;6.494;2023-12-20T08:03:04;3.55;;;2.00;;
46308;SDS011;32037;50.820;6.494;2023-12-20T08:05:33;3.83;;;2.15;;
46308;SDS011;32037;50.820;6.494;2023-12-20T08:08:01;7.85;;;2.30;;
46308;SDS011;32037;50.820;6.494;2023-12-20T08:10:29;5.00;;;2.20;;
46308;SDS011;32037;50.820;6.494;2023-12-20T08:12:57;4.25;;;2.40;;
46308;SDS011;32037;50.820;6.494;2023-12-20T08:15:25;5.32;;;2.08;;
46308;SDS011;32037;50.820;6.494;2023-12-20T08:17:53;5.50;;;2.42;;
46308;SDS011;32037;50.820;6.494;2023-12-20T08:20:23;5.50;;;2.30;;
46308;SDS011;32037;50.820;6.494;2023-12-20T08:23:05;4.32;;;2.20;;
46308;SDS011;32037;50.820;6.494;2023-12-20T08:25:33;5.28;;;1.73;;
46308;SDS011;32037;50.820;6.494;2023-12-20T08:28:01;4.13;;;1.95;;
46308;SDS011;32037;50.820;6.494;2023-12-20T08:30:30;6.20;;;2.00;;
46308;SDS011;32037;50.820;6.494;2023-12-20T08:32:59;6.78;;;2.85;;
46308;SDS011;32037;50.820;6.494;2023-12-20T08:35:30;5.22;;;2.45;;
46308;SDS011;32037;50.820;6.494;2023-12-20T08:37:58;7.40;;;2.13;;
46308;SDS011;32037;50.820;6.494;2023-12-20T08:40:26;3.70;;;1.90;;
46308;SDS011;32037;50.820;6.494;2023-12-20T08:42:55;2.53;;;1.60;;
46308;SDS011;32037;50.820;6.494;2023-12-20T08:45:23;2.60;;;1.90;;
46308;SDS011;32037;50.820;6.494;2023-12-20T08:47:51;3.30;;;2.80;;
46308;SDS011;32037;50.820;6.494;2023-12-20T08:50:19;4.78;;;2.13;;
46308;SDS011;32037;50.820;6.494;2023-12-20T08:52:49;7.40;;;2.05;;
46308;SDS011;32037;50.820;6.494;2023-12-20T08:55:17;3.42;;;2.10;;
46308;SDS011;32037;50.820;6.494;2023-12-20T08:57:46;9.95;;;2.03;;
46308;SDS011;32037;50.820;6.494;2023-12-20T09:00:15;3.03;;;1.63;;
46308;SDS011;32037;50.820;6.494;2023-12-20T09:02:46;4.05;;;1.58;;
46308;SDS011;32037;50.820;6.494;2023-12-20T09:05:14;5.78;;;3.47;;
46308;SDS011;32037;50.820;6.494;2023-12-20T09:07:43;4.70;;;1.80;;
46308;SDS011;32037;50.820;6.494;2023-12-20T09:10:13;4.68;;;1.75;;
46308;SDS011;32037;50.820;6.494;2023-12-20T09:12:44;5.20;;;2.63;;
46308;SDS011;32037;50.820;6.494;2023-12-20T09:15:13;4.80;;;2.40;;
46308;SDS011;32037;50.820;6.494;2023-12-20T09:17:42;3.40;;;1.70;;
46308;SDS011;32037;50.820;6.494;2023-12-20T09:20:11;4.82;;;1.80;;
46308;SDS011;32037;50.820;6.494;2023-12-20T09:22:40;6.05;;;2.55;;
46308;SDS011;32037;50.820;6.494;2023-12-20T09:25:09;4.88;;;2.15;;
46308;SDS011;32037;50.820;6.494;2023-12-20T09:27:39;4.00;;;2.22;;
46308;SDS011;32037;50.820;6.494;2023-12-20T09:30:08;7.20;;;2.75;;
46308;SDS011;32037;50.820;6.494;2023-12-20T09:32:36;4.30;;;2.08;;
46308;SDS011;32037;50.820;6.494;2023-12-20T09:35:05;6.30;;;2.17;;
46308;SDS011;32037;50.820;6.494;2023-12-20T09:37:35;3.90;;;1.88;;
46308;SDS011;32037;50.820;6.494;2023-12-20T09:40:03;2.90;;;1.98;;
46308;SDS011;32037;50.820;6.494;2023-12-20T09:42:35;3.75;;;2.10;;
46308;SDS011;32037;50.820;6.494;2023-12-20T09:45:14;5.53;;;1.60;;
46308;SDS011;32037;50.820;6.494;2023-12-20T09:47:43;5.45;;;1.88;;
46308;SDS011;32037;50.820;6.494;2023-12-20T09:50:11;4.03;;;1.90;;
46308;SDS011;32037;50.820;6.494;2023-12-20T09:52:40;4.90;;;2.17;;
46308;SDS011;32037;50.820;6.494;2023-12-20T09:55:10;2.50;;;1.85;;
46308;SDS011;32037;50.820;6.494;2023-12-20T09:57:40;8.15;;;1.90;;
46308;SDS011;32037;50.820;6.494;2023-12-20T10:00:09;4.00;;;1.90;;
46308;SDS011;32037;50.820;6.494;2023-12-20T10:02:38;6.93;;;2.20;;
46308;SDS011;32037;50.820;6.494;2023-12-20T10:05:15;5.18;;;1.75;;
46308;SDS011;32037;50.820;6.494;2023-12-20T10:07:45;5.88;;;1.95;;
46308;SDS011;32037;50.820;6.494;2023-12-20T10:10:15;5.32;;;1.85;;
46308;SDS011;32037;50.820;6.494;2023-12-20T10:13:00;4.20;;;1.92;;
46308;SDS011;32037;50.820;6.494;2023-12-20T10:15:30;4.95;;;2.15;;
46308;SDS011;32037;50.820;6.494;2023-12-20T10:17:59;4.18;;;2.72;;
46308;SDS011;32037;50.820;6.494;2023-12-20T10:20:28;4.82;;;2.00;;
46308;SDS011;32037;50.820;6.494;2023-12-20T10:22:57;3.90;;;1.80;;
46308;SDS011;32037;50.820;6.494;2023-12-20T10:25:26;3.28;;;1.70;;
46308;SDS011;32037;50.820;6.494;2023-12-20T10:28:09;7.63;;;1.50;;
46308;SDS011;32037;50.820;6.494;2023-12-20T10:30:40;3.13;;;1.98;;
46308;SDS011;32037;50.820;6.494;2023-12-20T10:33:10;3.25;;;2.25;;
46308;SDS011;32037;50.820;6.494;2023-12-20T10:35:38;4.10;;;1.92;;
46308;SDS011;32037;50.820;6.494;2023-12-20T10:38:11;2.20;;;1.50;;
46308;SDS011;32037;50.820;6.494;2023-12-20T10:40:42;4.28;;;1.70;;
46308;SDS011;32037;50.820;6.494;2023-12-20T10:43:13;3.83;;;1.75;;
46308;SDS011;32037;50.820;6.494;2023-12-20T10:45:43;3.92;;;2.58;;
46308;SDS011;32037;50.820;6.494;2023-12-20T10:48:11;2.95;;;1.65;;
46308;SDS011;32037;50.820;6.494;2023-12-20T10:50:39;5.22;;;2.15;;
46308;SDS011;32037;50.820;6.494;2023-12-20T10:53:09;3.63;;;1.50;;
46308;SDS011;32037;50.820;6.494;2023-12-20T10:55:38;3.80;;;1.80;;
46308;SDS011;32037;50.820;6.494;2023-12-20T10:58:07;5.95;;;2.22;;
46308;SDS011;32037;50.820;6.494;2023-12-20T11:00:39;6.10;;;2.10;;
46308;SDS011;32037;50.820;6.494;2023-12-20T11:03:08;3.00;;;1.20;;
46308;SDS011;32037;50.820;6.494;2023-12-20T11:05:40;3.45;;;2.15;;
46308;SDS011;32037;50.820;6.494;2023-12-20T11:08:17;3.35;;;1.70;;
46308;SDS011;32037;50.820;6.494;2023-12-20T11:10:59;3.28;;;1.90;;
46308;SDS011;32037;50.820;6.494;2023-12-20T11:13:34;4.00;;;1.80;;
46308;SDS011;32037;50.820;6.494;2023-12-20T11:16:06;2.50;;;1.70;;
46308;SDS011;32037;50.820;6.494;2023-12-20T11:18:35;3.85;;;1.70;;
46308;SDS011;32037;50.820;6.494;2023-12-20T11:21:04;3.88;;;1.80;;
46308;SDS011;32037;50.820;6.494;2023-12-20T11:23:32;5.10;;;1.98;;
46308;SDS011;32037;50.820;6.494;2023-12-20T11:26:02;4.78;;;1.40;;
46308;SDS011;32037;50.820;6.494;2023-12-20T11:28:30;5.97;;;2.03;;
46308;SDS011;32037;50.820;6.494;2023-12-20T11:31:00;3.97;;;1.50;;
46308;SDS011;32037;50.820;6.494;2023-12-20T11:33:31;4.40;;;1.58;;
46308;SDS011;32037;50.820;6.494;2023-12-20T11:36:07;3.13;;;1.63;;
46308;SDS011;32037;50.820;6.494;2023-12-20T11:38:55;6.75;;;2.20;;
46308;SDS011;32037;50.820;6.494;2023-12-20T11:41:26;2.10;;;1.48;;
46308;SDS011;32037;50.820;6.494;2023-12-20T11:43:55;3.25;;;1.77;;
46308;SDS011;32037;50.820;6.494;2023-12-20T11:46:23;3.58;;;2.28;;
46308;SDS011;32037;50.820;6.494;2023-12-20T11:48:54;3.85;;;1.95;;
46308;SDS011;32037;50.820;6.494;2023-12-20T11:51:22;4.05;;;1.90;;
46308;SDS011;32037;50.820;6.494;2023-12-20T11:53:54;4.25;;;2.03;;
46308;SDS011;32037;50.820;6.494;2023-12-20T11:56:22;6.68;;;3.38;;
46308;SDS011;32037;50.820;6.494;2023-12-20T11:58:50;11.70;;;2.70;;
46308;SDS011;32037;50.820;6.494;2023-12-20T12:01:19;5.25;;;2.10;;
46308;SDS011;32037;50.820;6.494;2023-12-20T12:03:48;7.40;;;2.78;;
46308;SDS011;32037;50.820;6.494;2023-12-20T12:06:17;5.60;;;2.47;;
46308;SDS011;32037;50.820;6.494;2023-12-20T12:08:45;6.13;;;2.10;;
46308;SDS011;32037;50.820;6.494;2023-12-20T12:11:13;6.80;;;2.15;;
46308;SDS011;32037;50.820;6.494;2023-12-20T12:13:41;5.07;;;2.00;;
46308;SDS011;32037;50.820;6.494;2023-12-20T12:16:10;5.97;;;2.15;;
46308;SDS011;32037;50.820;6.494;2023-12-20T12:18:38;4.93;;;2.10;;
46308;SDS011;32037;50.820;6.494;2023-12-20T12:21:08;5.03;;;2.97;;
46308;SDS011;32037;50.820;6.494;2023-12-20T12:23:45;5.88;;;1.80;;
46308;SDS011;32037;50.820;6.494;2023-12-20T12:26:14;3.47;;;1.65;;
46308;SDS011;32037;50.820;6.494;2023-12-20T12:28:42;4.65;;;2.15;;
46308;SDS011;32037;50.820;6.494;2023-12-20T12:31:13;4.47;;;2.58;;
46308;SDS011;32037;50.820;6.494;2023-12-20T12:33:42;7.10;;;2.90;;
46308;SDS011;32037;50.820;6.494;2023-12-20T12:36:11;6.18;;;2.53;;
46308;SDS011;32037;50.820;6.494;2023-12-20T12:38:42;7.35;;;2.55;;
46308;SDS011;32037;50.820;6.494;2023-12-20T12:41:13;4.35;;;2.47;;
46308;SDS011;32037;50.820;6.494;2023-12-20T12:43:42;5.07;;;1.98;;
46308;SDS011;32037;50.820;6.494;2023-12-20T12:46:11;5.35;;;2.95;;
46308;SDS011;32037;50.820;6.494;2023-12-20T12:48:39;4.68;;;2.53;;
46308;SDS011;32037;50.820;6.494;2023-12-20T12:51:11;5.85;;;2.45;;
46308;SDS011;32037;50.820;6.494;2023-12-20T12:53:40;4.85;;;2.97;;
46308;SDS011;32037;50.820;6.494;2023-12-20T12:56:08;12.73;;;3.80;;
46308;SDS011;32037;50.820;6.494;2023-12-20T12:58:38;8.27;;;2.55;;
46308;SDS011;32037;50.820;6.494;2023-12-20T13:01:06;7.82;;;2.83;;
46308;SDS011;32037;50.820;6.494;2023-12-20T13:03:35;7.05;;;2.60;;
46308;SDS011;32037;50.820;6.494;2023-12-20T13:06:03;4.95;;;2.35;;
46308;SDS011;32037;50.820;6.494;2023-12-20T13:08:32;5.05;;;2.38;;
46308;SDS011;32037;50.820;6.494;2023-12-20T13:11:00;4.97;;;2.53;;
46308;SDS011;32037;50.820;6.494;2023-12-20T13:13:30;6.50;;;2.67;;
46308;SDS011;32037;50.820;6.494;2023-12-20T13:16:00;9.00;;;2.67;;
46308;SDS011;32037;50.820;6.494;2023-12-20T13:18:28;4.07;;;2.78;;
46308;SDS011;32037;50.820;6.494;2023-12-20T13:20:56;4.07;;;1.90;;
46308;SDS011;32037;50.820;6.494;2023-12-20T13:23:24;11.07;;;2.88;;
46308;SDS011;32037;50.820;6.494;2023-12-20T13:25:52;3.80;;;3.00;;
46308;SDS011;32037;50.820;6.494;2023-12-20T13:28:20;8.98;;;3.38;;
46308;SDS011;32037;50.820;6.494;2023-12-20T13:30:48;3.35;;;2.33;;
46308;SDS011;32037;50.820;6.494;2023-12-20T13:33:18;4.55;;;2.75;;
46308;SDS011;32037;50.820;6.494;2023-12-20T13:35:46;7.53;;;2.63;;
46308;SDS011;32037;50.820;6.494;2023-12-20T13:38:14;5.35;;;2.47;;
46308;SDS011;32037;50.820;6.494;2023-12-20T13:40:43;6.15;;;2.92;;
46308;SDS011;32037;50.820;6.494;2023-12-20T13:43:11;3.22;;;2.00;;
46308;SDS011;32037;50.820;6.494;2023-12-20T13:45:40;5.47;;;2.10;;
46308;SDS011;32037;50.820;6.494;2023-12-20T13:48:08;5.82;;;2.78;;
46308;SDS011;32037;50.820;6.494;2023-12-20T13:50:38;3.75;;;2.22;;
46308;SDS011;32037;50.820;6.494;2023-12-20T13:53:06;7.10;;;2.33;;
46308;SDS011;32037;50.820;6.494;2023-12-20T13:55:34;5.25;;;2.13;;
46308;SDS011;32037;50.820;6.494;2023-12-20T13:58:02;4.55;;;2.15;;
46308;SDS011;32037;50.820;6.494;2023-12-20T14:00:31;3.90;;;2.65;;
46308;SDS011;32037;50.820;6.494;2023-12-20T14:02:59;3.35;;;1.95;;
46308;SDS011;32037;50.820;6.494;2023-12-20T14:05:28;3.30;;;2.30;;
46308;SDS011;32037;50.820;6.494;2023-12-20T14:07:57;4.00;;;2.42;;
46308;SDS011;32037;50.820;6.494;2023-12-20T14:10:27;6.32;;;1.88;;
46308;SDS011;32037;50.820;6.494;2023-12-20T14:12:55;5.10;;;2.20;;
46308;SDS011;32037;50.820;6.494;2023-12-20T14:15:23;3.20;;;1.88;;
46308;SDS011;32037;50.820;6.494;2023-12-20T14:17:52;4.15;;;2.35;;
46308;SDS011;32037;50.820;6.494;2023-12-20T14:20:21;3.38;;;1.92;;
46308;SDS011;32037;50.820;6.494;2023-12-20T14:22:49;4.00;;;2.65;;
46308;SDS011;32037;50.820;6.494;2023-12-20T14:25:19;7.00;;;2.55;;
46308;SDS011;32037;50.820;6.494;2023-12-20T14:27:49;4.50;;;2.15;;
46308;SDS011;32037;50.820;6.494;2023-12-20T14:30:17;6.47;;;2.22;;
46308;SDS011;32037;50.820;6.494;2023-12-20T14:32:46;7.05;;;2.25;;
46308;SDS011;32037;50.820;6.494;2023-12-20T14:35:14;7.07;;;2.55;;
46308;SDS011;32037;50.820;6.494;2023-12-20T14:37:43;5.30;;;2.58;;
46308;SDS011;32037;50.820;6.494;2023-12-20T14:40:11;6.75;;;2.88;;
46308;SDS011;32037;50.820;6.494;2023-12-20T14:42:44;9.80;;;3.10;;
46308;SDS011;32037;50.820;6.494;2023-12-20T14:45:13;6.38;;;3.33;;
46308;SDS011;32037;50.820;6.494;2023-12-20T14:47:42;3.88;;;2.65;;
46308;SDS011;32037;50.820;6.494;2023-12-20T14:50:11;4.05;;;3.20;;
46308;SDS011;32037;50.820;6.494;2023-12-20T14:52:45;5.70;;;2.95;;
46308;SDS011;32037;50.820;6.494;2023-12-20T14:55:13;9.05;;;3.30;;
46308;SDS011;32037;50.820;6.494;2023-12-20T14:57:41;4.30;;;3.13;;
46308;SDS011;32037;50.820;6.494;2023-12-20T15:00:11;11.25;;;3.58;;